createdAt,value
2018-08-06T00:02:42.417Z,21.50
2018-08-06T00:05:34.073Z,21.70
2018-08-06T00:08:16.141Z,21.70
2018-08-06T00:11:04.397Z,21.50
2018-08-06T00:13:52.581Z,21.50
2018-08-06T00:16:36.507Z,21.30
2018-08-06T00:19:24.908Z,21.50
2018-08-06T00:22:07.421Z,21.40
2018-08-06T00:24:59.756Z,21.60
2018-08-06T00:27:50.970Z,21.40
2018-08-06T00:30:46.088Z,21.40
2018-08-06T00:33:18.450Z,21.50
2018-08-06T00:35:48.632Z,21.70
2018-08-06T00:38:18.451Z,21.80
2018-08-06T00:40:48.289Z,21.70
2018-08-06T00:43:18.278Z,21.70
2018-08-06T00:45:48.287Z,21.70
2018-08-06T00:48:17.997Z,21.50
2018-08-06T00:50:48.017Z,21.40
2018-08-06T00:55:47.240Z,21.60
2018-08-06T00:58:17.010Z,21.40
2018-08-06T01:00:46.830Z,21.50
2018-08-06T01:03:16.832Z,21.50
2018-08-06T01:05:46.572Z,21.60
2018-08-06T01:10:45.868Z,21.50
2018-08-06T01:13:15.596Z,21.40
2018-08-06T01:15:45.489Z,21.30
2018-08-06T01:18:15.471Z,21.30
2018-08-06T01:20:45.300Z,21.30
2018-08-06T01:23:15.085Z,21.20
2018-08-06T01:25:44.787Z,21.20
2018-08-06T01:28:14.639Z,21.10
2018-08-06T01:30:44.570Z,20.80
2018-08-06T01:35:57.652Z,20.80
2018-08-06T01:38:30.793Z,20.90
2018-08-06T01:41:03.583Z,21.00
2018-08-06T01:43:34.023Z,20.60
2018-08-06T01:46:04.900Z,20.30
2018-08-06T01:48:35.997Z,20.30
2018-08-06T01:51:06.360Z,20.60
2018-08-06T01:58:38.166Z,20.50
2018-08-06T02:01:07.872Z,20.60
2018-08-06T02:03:38.499Z,20.80
2018-08-06T02:06:08.858Z,20.70
2018-08-06T02:08:38.887Z,20.80
2018-08-06T02:11:09.973Z,20.80
2018-08-06T02:13:43.831Z,20.50
2018-08-06T02:16:14.994Z,20.60
2018-08-06T02:18:45.800Z,20.70
2018-08-06T02:21:16.493Z,20.50
2018-08-06T02:26:21.957Z,20.60
2018-08-06T02:31:21.463Z,20.30
2018-08-06T02:34:02.122Z,20.20
2018-08-06T02:36:31.953Z,20.10
2018-08-06T02:39:01.793Z,20.20
2018-08-06T02:41:32.436Z,20.40
2018-08-06T02:46:32.553Z,20.40
2018-08-06T02:49:02.539Z,20.60
2018-08-06T02:51:32.614Z,20.60
2018-08-06T02:54:02.535Z,20.50
2018-08-06T02:56:32.233Z,20.30
2018-08-06T02:59:02.156Z,20.50
2018-08-06T03:01:31.843Z,20.60
2018-08-06T03:04:03.293Z,20.70
2018-08-06T03:06:33.219Z,20.50
2018-08-06T03:09:03.081Z,20.20
2018-08-06T03:11:32.914Z,20.10
2018-08-06T03:14:02.660Z,20.20
2018-08-06T03:16:33.314Z,20.00
2018-08-06T03:19:03.116Z,19.70
2018-08-06T03:21:32.872Z,19.90
2018-08-06T03:24:13.702Z,19.80
2018-08-06T03:26:55.009Z,20.00
2018-08-06T03:29:46.772Z,20.00
2018-08-06T03:32:29.989Z,20.00
2018-08-06T03:37:53.032Z,20.40
2018-08-06T03:40:28.170Z,20.40
2018-08-06T03:45:45.416Z,20.30
2018-08-06T03:48:24.560Z,20.20
2018-08-06T03:51:02.882Z,20.20
2018-08-06T03:56:22.581Z,20.20
2018-08-06T03:59:00.467Z,20.20
2018-08-06T04:04:23.857Z,20.40
2018-08-06T04:07:02.350Z,20.20
2018-08-06T04:09:38.411Z,20.40
2018-08-06T04:12:12.404Z,20.30
2018-08-06T04:14:53.730Z,20.50
2018-08-06T04:17:32.032Z,20.50
2018-08-06T04:20:15.686Z,20.50
2018-08-06T04:22:52.508Z,20.50
2018-08-06T04:25:26.861Z,20.40
2018-08-06T04:28:04.699Z,20.60
2018-08-06T04:30:43.324Z,20.90
2018-08-06T04:33:23.762Z,21.00
2018-08-06T04:36:01.101Z,21.10
2018-08-06T04:38:59.469Z,21.20
2018-08-06T04:44:47.328Z,21.20
2018-08-06T04:50:29.484Z,21.10
2018-08-06T04:53:25.436Z,20.90
2018-08-06T04:56:17.292Z,21.40
2018-08-06T04:59:03.408Z,21.70
2018-08-06T05:01:55.862Z,21.70
2018-08-06T05:04:50.685Z,21.80
2018-08-06T05:10:36.044Z,21.80
2018-08-06T05:13:31.330Z,21.90
2018-08-06T05:16:20.809Z,21.60
2018-08-06T05:25:09.434Z,21.90
2018-08-06T05:28:00.586Z,22.20
2018-08-06T05:36:42.460Z,22.60
2018-08-06T05:39:28.276Z,22.50
2018-08-06T05:42:12.554Z,22.50
2018-08-06T05:45:03.464Z,22.90
2018-08-06T05:47:46.320Z,23.00
2018-08-06T05:50:30.828Z,23.40
2018-08-06T05:53:16.461Z,23.40
2018-08-06T05:56:07.783Z,23.70
2018-08-06T05:58:57.796Z,24.00
2018-08-06T06:01:43.250Z,24.30
2018-08-06T06:07:22.336Z,24.60
2018-08-06T06:12:59.905Z,25.00
2018-08-06T06:15:50.326Z,25.10
2018-08-06T06:18:37.689Z,24.90
2018-08-06T06:21:30.470Z,25.30
2018-08-06T06:24:22.083Z,25.50
2018-08-06T06:30:06.461Z,25.60
2018-08-06T06:41:40.154Z,25.40
2018-08-06T06:44:39.730Z,25.60
2018-08-06T06:47:33.560Z,24.80
2018-08-06T06:58:49.780Z,25.10
2018-08-06T07:01:37.869Z,25.70
2018-08-06T07:04:27.477Z,25.70
2018-08-06T07:07:27.394Z,25.30
2018-08-06T07:13:07.954Z,25.20
2018-08-06T07:16:01.478Z,25.30
2018-08-06T07:21:43.233Z,25.30
2018-08-06T07:24:29.346Z,25.40
2018-08-06T07:27:19.628Z,25.80
2018-08-06T07:30:05.178Z,26.00
2018-08-06T07:33:01.248Z,25.90
2018-08-06T07:38:39.350Z,25.60
2018-08-06T07:44:18.520Z,26.10
2018-08-06T07:47:11.284Z,25.90
2018-08-06T07:52:55.051Z,26.60
2018-08-06T07:55:51.446Z,27.00
2018-08-06T08:01:34.157Z,27.30
2018-08-06T08:04:20.812Z,27.10
2018-08-06T08:07:14.815Z,27.30
2018-08-06T08:10:02.927Z,26.90
2018-08-06T08:15:46.241Z,27.70
2018-08-06T08:18:37.275Z,27.90
2018-08-06T08:21:21.227Z,28.10
2018-08-06T08:29:47.205Z,28.20
2018-08-06T08:32:33.423Z,28.00
2018-08-06T08:38:11.333Z,27.30
2018-08-06T08:46:49.810Z,28.10
2018-08-06T08:52:32.481Z,28.90
2018-08-06T08:55:24.203Z,29.10
2018-08-06T08:58:14.568Z,28.90
2018-08-06T09:04:03.811Z,28.60
2018-08-06T09:06:59.022Z,28.70
2018-08-06T09:12:40.306Z,28.50
2018-08-06T09:15:30.621Z,28.60
2018-08-06T09:18:20.493Z,28.40
2018-08-06T09:21:15.420Z,28.70
2018-08-06T09:24:07.689Z,29.00
2018-08-06T09:29:47.928Z,29.20
2018-08-06T09:32:40.895Z,28.70
2018-08-06T09:35:37.144Z,28.90
2018-08-06T09:41:21.437Z,29.10
2018-08-06T09:47:13.316Z,29.50
2018-08-06T09:50:09.290Z,29.40
2018-08-06T09:53:07.299Z,29.60
2018-08-06T09:56:03.736Z,29.70
2018-08-06T09:58:51.445Z,29.80
2018-08-06T10:01:43.038Z,29.80
2018-08-06T10:04:45.099Z,30.00
2018-08-06T10:07:35.768Z,30.50
2018-08-06T10:10:28.276Z,30.60
2018-08-06T10:16:20.516Z,30.60
2018-08-06T10:19:15.406Z,30.80
2018-08-06T10:22:08.103Z,30.70
2018-08-06T10:24:56.991Z,30.50
2018-08-06T10:27:51.182Z,30.30
2018-08-06T10:30:41.517Z,30.90
2018-08-06T10:33:26.807Z,31.10
2018-08-06T10:42:04.304Z,30.80
2018-08-06T10:45:00.936Z,30.70
2018-08-06T10:53:33.751Z,31.00
2018-08-06T10:56:31.397Z,30.90
2018-08-06T11:02:19.457Z,31.50
2018-08-06T11:05:08.796Z,31.40
2018-08-06T11:08:00.995Z,31.50
2018-08-06T11:10:59.352Z,31.70
2018-08-06T11:13:55.720Z,31.50
2018-08-06T11:19:31.423Z,31.70
2018-08-06T11:22:21.868Z,31.30
2018-08-06T11:37:09.861Z,32.30
2018-08-06T11:40:00.640Z,32.50
2018-08-06T11:42:53.236Z,32.50
2018-08-06T11:51:25.660Z,32.60
2018-08-06T11:57:19.241Z,31.50
2018-08-06T12:00:12.752Z,32.00
2018-08-06T12:03:05.702Z,32.50
2018-08-06T12:08:42.839Z,32.70
2018-08-06T12:11:36.688Z,33.10
2018-08-06T12:14:22.103Z,32.80
2018-08-06T12:17:08.515Z,32.80
2018-08-06T12:19:50.830Z,32.60
2018-08-06T12:22:50.498Z,32.00
2018-08-06T12:25:49.015Z,32.60
2018-08-06T12:28:35.972Z,32.80
2018-08-06T12:31:16.980Z,32.80
2018-08-06T12:34:06.833Z,32.10
2018-08-06T12:39:45.078Z,32.00
2018-08-06T12:45:34.019Z,32.20
2018-08-06T12:51:18.849Z,31.80
2018-08-06T12:54:13.051Z,31.40
2018-08-06T12:57:01.323Z,31.80
2018-08-06T13:02:49.369Z,32.30
2018-08-06T13:05:35.724Z,32.20
2018-08-06T13:08:17.503Z,32.30
2018-08-06T13:11:03.446Z,32.50
2018-08-06T13:13:59.555Z,32.50
2018-08-06T13:16:48.440Z,32.40
2018-08-06T13:19:43.662Z,32.60
2018-08-06T13:22:40.328Z,33.30
2018-08-06T13:25:33.906Z,33.40
2018-08-06T13:28:17.026Z,33.50
2018-08-06T13:30:59.087Z,33.70
2018-08-06T13:33:38.610Z,33.60
2018-08-06T13:36:24.747Z,33.70
2018-08-06T13:39:04.265Z,33.80
2018-08-06T13:41:48.705Z,33.60
2018-08-06T13:44:35.916Z,33.40
2018-08-06T13:47:21.333Z,32.80
2018-08-06T13:50:03.513Z,32.90
2018-08-06T13:52:46.832Z,33.20
2018-08-06T13:55:38.097Z,33.30
2018-08-06T13:58:21.652Z,33.80
2018-08-06T14:01:07.859Z,34.00
2018-08-06T14:03:48.720Z,34.70
2018-08-06T14:06:37.843Z,34.30
2018-08-06T14:12:16.243Z,34.10
2018-08-06T14:14:58.591Z,33.80
2018-08-06T14:20:44.404Z,33.70
2018-08-06T14:23:25.020Z,33.60
2018-08-06T14:26:08.915Z,33.40
2018-08-06T14:28:55.388Z,33.20
2018-08-06T14:31:37.827Z,33.30
2018-08-06T14:34:27.384Z,33.30
2018-08-06T14:37:09.130Z,33.50
2018-08-06T14:39:55.006Z,33.90
2018-08-06T14:42:38.965Z,33.80
2018-08-06T14:45:26.001Z,33.40
2018-08-06T14:48:06.155Z,33.50
2018-08-06T14:50:53.909Z,33.10
2018-08-06T14:53:36.963Z,33.40
2018-08-06T14:56:26.059Z,33.50
2018-08-06T14:59:10.575Z,33.30
2018-08-06T15:01:53.717Z,34.10
2018-08-06T15:04:37.190Z,34.10
2018-08-06T15:07:16.682Z,32.90
2018-08-06T15:10:07.687Z,33.20
2018-08-06T15:15:52.244Z,33.30
2018-08-06T15:21:30.233Z,34.00
2018-08-06T15:27:10.686Z,33.60
2018-08-06T15:29:53.716Z,33.70
2018-08-06T15:32:35.437Z,33.60
2018-08-06T15:35:17.552Z,33.40
2018-08-06T15:38:09.330Z,33.60
2018-08-06T15:40:56.752Z,33.70
2018-08-06T15:43:44.096Z,33.70
2018-08-06T15:46:26.806Z,33.90
2018-08-06T15:49:10.925Z,34.10
2018-08-06T15:52:01.574Z,34.00
2018-08-06T16:00:24.327Z,33.40
2018-08-06T16:03:20.158Z,33.20
2018-08-06T16:06:12.958Z,33.20
2018-08-06T16:09:09.289Z,33.60
2018-08-06T16:14:40.327Z,33.20
2018-08-06T16:17:27.636Z,33.10
2018-08-06T16:20:11.434Z,33.40
2018-08-06T16:22:56.447Z,33.40
2018-08-06T16:25:44.711Z,33.40
2018-08-06T16:28:30.646Z,33.40
2018-08-06T16:31:17.150Z,33.20
2018-08-06T16:34:06.594Z,33.20
2018-08-06T16:36:53.006Z,33.00
2018-08-06T16:39:44.854Z,33.10
2018-08-06T16:42:25.358Z,33.20
2018-08-06T16:45:09.058Z,32.70
2018-08-06T16:48:00.738Z,32.70
2018-08-06T16:50:53.180Z,32.30
2018-08-06T16:53:42.609Z,32.30
2018-08-06T16:56:29.465Z,32.60
2018-08-06T16:59:21.757Z,32.30
2018-08-06T17:02:05.947Z,32.90
2018-08-06T17:04:45.189Z,34.70
2018-08-06T17:07:33.755Z,35.50
2018-08-06T17:10:20.277Z,34.90
2018-08-06T17:13:05.265Z,33.90
2018-08-06T17:15:53.948Z,33.40
2018-08-06T17:18:42.633Z,33.10
2018-08-06T17:24:19.789Z,31.90
2018-08-06T17:30:10.339Z,31.20
2018-08-06T17:32:55.303Z,31.30
2018-08-06T17:35:41.820Z,31.40
2018-08-06T17:38:27.483Z,31.30
2018-08-06T17:47:00.196Z,30.50
2018-08-06T17:49:43.215Z,30.70
2018-08-06T17:52:34.119Z,30.50
2018-08-06T18:01:17.069Z,30.50
2018-08-06T18:15:37.790Z,29.90
2018-08-06T18:21:17.475Z,29.60
2018-08-06T18:24:07.394Z,29.40
2018-08-06T18:26:54.227Z,29.30
2018-08-06T18:29:45.328Z,29.00
2018-08-06T18:32:29.265Z,28.80
2018-08-06T18:35:19.454Z,28.80
2018-08-06T18:38:11.117Z,28.70
2018-08-06T18:40:56.604Z,28.60
2018-08-06T18:43:37.832Z,28.60
2018-08-06T18:46:18.467Z,28.40
2018-08-06T18:49:03.068Z,28.40
2018-08-06T18:51:41.415Z,28.20
2018-08-06T18:54:25.437Z,28.00
2018-08-06T18:57:11.456Z,27.70
2018-08-06T18:59:48.177Z,27.70
2018-08-06T19:02:28.678Z,27.60
2018-08-06T19:05:05.268Z,27.60
2018-08-06T19:07:49.372Z,27.60
2018-08-06T19:10:34.523Z,27.60
2018-08-06T19:13:18.626Z,27.70
2018-08-06T19:16:02.616Z,27.60
2018-08-06T19:18:42.834Z,27.30
2018-08-06T19:21:19.073Z,27.40
2018-08-06T19:24:04.241Z,27.30
2018-08-06T19:26:45.340Z,27.30
2018-08-06T19:29:25.393Z,27.30
2018-08-06T19:32:03.721Z,27.40
2018-08-06T19:34:55.635Z,27.30
2018-08-06T19:37:41.323Z,27.30
2018-08-06T19:40:30.479Z,27.00
2018-08-06T19:43:13.279Z,26.60
2018-08-06T19:45:48.701Z,26.70
2018-08-06T19:48:27.526Z,26.50
2018-08-06T19:51:09.386Z,26.70
2018-08-06T19:53:55.889Z,26.70
2018-08-06T19:59:08.872Z,26.60
2018-08-06T20:01:50.463Z,26.50
2018-08-06T20:04:26.802Z,26.60
2018-08-06T20:09:45.169Z,26.20
2018-08-06T20:12:27.899Z,26.00
2018-08-06T20:15:08.870Z,26.10
2018-08-06T20:17:49.069Z,26.20
2018-08-06T20:20:24.709Z,26.00
2018-08-06T20:23:07.704Z,26.10
2018-08-06T20:25:48.770Z,26.00
2018-08-06T20:28:31.114Z,26.10
2018-08-06T20:31:08.231Z,26.00
2018-08-06T20:33:53.045Z,26.10
2018-08-06T20:36:31.226Z,26.10
2018-08-06T20:39:11.286Z,26.20
2018-08-06T20:44:25.811Z,25.90
2018-08-06T20:47:05.193Z,26.00
2018-08-06T20:49:46.797Z,25.90
2018-08-06T20:52:25.665Z,25.90
2018-08-06T20:55:05.737Z,25.50
2018-08-06T20:57:51.483Z,25.20
2018-08-06T21:00:30.407Z,25.20
2018-08-06T21:05:46.219Z,25.60
2018-08-06T21:11:14.718Z,25.70
2018-08-06T21:13:52.535Z,25.60
2018-08-06T21:16:31.931Z,25.60
2018-08-06T21:19:09.304Z,25.30
2018-08-06T21:29:56.841Z,25.30
2018-08-06T21:32:39.364Z,25.10
2018-08-06T21:35:27.416Z,25.10
2018-08-06T21:38:10.263Z,25.10
2018-08-06T21:40:53.235Z,25.30
2018-08-06T21:43:37.539Z,25.10
2018-08-06T21:46:19.800Z,25.00
2018-08-06T21:49:01.136Z,25.10
2018-08-06T21:51:37.386Z,24.90
2018-08-06T21:54:16.523Z,25.10
2018-08-06T21:59:39.146Z,24.80
2018-08-06T22:02:14.179Z,24.90
2018-08-06T22:04:55.512Z,24.70
2018-08-06T22:07:33.798Z,24.80
2018-08-06T22:10:13.052Z,24.70
2018-08-06T22:12:53.229Z,24.80
2018-08-06T22:15:31.499Z,24.60
2018-08-06T22:18:19.809Z,24.80
2018-08-06T22:21:03.919Z,24.80
2018-08-06T22:23:41.390Z,24.70
2018-08-06T22:26:18.360Z,24.70
2018-08-06T22:28:55.477Z,24.40
2018-08-06T22:34:16.790Z,24.50
2018-08-06T22:36:58.224Z,24.40
2018-08-06T22:39:40.346Z,24.10
2018-08-06T22:42:25.670Z,24.20
2018-08-06T22:45:04.405Z,24.20
2018-08-06T22:47:44.982Z,24.20
2018-08-06T22:50:23.224Z,24.20
2018-08-06T22:55:54.338Z,24.20
2018-08-06T23:01:11.457Z,24.20
2018-08-06T23:03:50.440Z,24.10
2018-08-06T23:06:26.372Z,24.20
2018-08-06T23:09:09.190Z,24.20
2018-08-06T23:11:46.526Z,24.10
2018-08-06T23:14:22.746Z,24.10
2018-08-06T23:17:02.273Z,23.90
2018-08-06T23:19:38.274Z,24.20
2018-08-06T23:22:20.337Z,24.20
2018-08-06T23:24:55.304Z,24.10
2018-08-06T23:27:39.825Z,24.10
2018-08-06T23:30:22.240Z,24.00
2018-08-06T23:33:04.608Z,24.00
2018-08-06T23:35:43.616Z,24.10
2018-08-06T23:38:26.603Z,24.10
2018-08-06T23:41:07.441Z,23.80
2018-08-06T23:46:28.492Z,23.90
2018-08-06T23:49:06.600Z,24.00
2018-08-06T23:51:49.848Z,24.10
2018-08-06T23:54:29.379Z,24.00
2018-08-06T23:57:09.553Z,24.00
2018-08-06T23:59:53.848Z,23.80
